sensor_id;sensor_type;location;lat;lon;timestamp;P1;durP1;ratioP1;P2;durP2;ratioP2
39016;SDS011;24784;45.582;5.276;2024-03-17T00:01:37;15.77;;;5.03;;
39016;SDS011;24784;45.582;5.276;2024-03-17T00:04:03;14.18;;;5.25;;
39016;SDS011;24784;45.582;5.276;2024-03-17T00:06:29;17.92;;;6.22;;
39016;SDS011;24784;45.582;5.276;2024-03-17T00:08:55;13.75;;;4.78;;
39016;SDS011;24784;45.582;5.276;2024-03-17T00:11:21;12.82;;;4.75;;
39016;SDS011;24784;45.582;5.276;2024-03-17T00:13:47;16.20;;;6.32;;
39016;SDS011;24784;45.582;5.276;2024-03-17T00:16:13;19.17;;;5.25;;
39016;SDS011;24784;45.582;5.276;2024-03-17T00:18:39;15.77;;;5.20;;
39016;SDS011;24784;45.582;5.276;2024-03-17T00:21:06;10.90;;;4.53;;
39016;SDS011;24784;45.582;5.276;2024-03-17T00:23:31;14.05;;;4.88;;
39016;SDS011;24784;45.582;5.276;2024-03-17T00:25:57;12.85;;;4.80;;
39016;SDS011;24784;45.582;5.276;2024-03-17T00:28:22;15.13;;;6.53;;
39016;SDS011;24784;45.582;5.276;2024-03-17T00:30:49;12.85;;;5.15;;
39016;SDS011;24784;45.582;5.276;2024-03-17T00:33:15;16.33;;;5.22;;
39016;SDS011;24784;45.582;5.276;2024-03-17T00:35:41;15.13;;;5.30;;
39016;SDS011;24784;45.582;5.276;2024-03-17T00:38:06;15.10;;;5.78;;
39016;SDS011;24784;45.582;5.276;2024-03-17T00:40:38;12.43;;;4.60;;
39016;SDS011;24784;45.582;5.276;2024-03-17T00:43:07;15.98;;;4.75;;
39016;SDS011;24784;45.582;5.276;2024-03-17T00:45:33;11.38;;;5.25;;
39016;SDS011;24784;45.582;5.276;2024-03-17T00:47:58;12.13;;;4.80;;
39016;SDS011;24784;45.582;5.276;2024-03-17T00:50:24;18.33;;;4.88;;
39016;SDS011;24784;45.582;5.276;2024-03-17T00:52:50;14.80;;;4.78;;
39016;SDS011;24784;45.582;5.276;2024-03-17T00:55:15;13.15;;;4.57;;
39016;SDS011;24784;45.582;5.276;2024-03-17T00:57:41;11.77;;;4.70;;
39016;SDS011;24784;45.582;5.276;2024-03-17T01:00:07;12.98;;;4.53;;
39016;SDS011;24784;45.582;5.276;2024-03-17T01:02:40;8.95;;;4.03;;
39016;SDS011;24784;45.582;5.276;2024-03-17T01:05:06;12.52;;;4.45;;
39016;SDS011;24784;45.582;5.276;2024-03-17T01:07:32;15.38;;;4.30;;
39016;SDS011;24784;45.582;5.276;2024-03-17T01:09:59;9.52;;;4.70;;
39016;SDS011;24784;45.582;5.276;2024-03-17T01:12:25;17.33;;;4.95;;
39016;SDS011;24784;45.582;5.276;2024-03-17T01:14:51;17.58;;;4.90;;
39016;SDS011;24784;45.582;5.276;2024-03-17T01:17:16;12.30;;;4.07;;
39016;SDS011;24784;45.582;5.276;2024-03-17T01:19:44;12.40;;;4.78;;
39016;SDS011;24784;45.582;5.276;2024-03-17T01:22:10;9.65;;;4.43;;
39016;SDS011;24784;45.582;5.276;2024-03-17T01:24:35;9.73;;;4.80;;
39016;SDS011;24784;45.582;5.276;2024-03-17T01:27:02;12.32;;;4.60;;
39016;SDS011;24784;45.582;5.276;2024-03-17T01:29:28;12.85;;;5.25;;
39016;SDS011;24784;45.582;5.276;2024-03-17T01:31:53;13.63;;;4.82;;
39016;SDS011;24784;45.582;5.276;2024-03-17T01:34:20;19.00;;;5.30;;
39016;SDS011;24784;45.582;5.276;2024-03-17T01:36:46;13.95;;;4.53;;
39016;SDS011;24784;45.582;5.276;2024-03-17T01:39:12;15.05;;;4.90;;
39016;SDS011;24784;45.582;5.276;2024-03-17T01:41:38;11.82;;;4.90;;
39016;SDS011;24784;45.582;5.276;2024-03-17T01:44:04;13.18;;;4.38;;
39016;SDS011;24784;45.582;5.276;2024-03-17T01:46:30;14.68;;;4.65;;
39016;SDS011;24784;45.582;5.276;2024-03-17T01:48:56;11.02;;;4.25;;
39016;SDS011;24784;45.582;5.276;2024-03-17T01:51:23;17.67;;;5.20;;
39016;SDS011;24784;45.582;5.276;2024-03-17T01:53:49;11.85;;;4.70;;
39016;SDS011;24784;45.582;5.276;2024-03-17T01:56:15;15.23;;;5.78;;
39016;SDS011;24784;45.582;5.276;2024-03-17T01:58:44;12.00;;;4.78;;
39016;SDS011;24784;45.582;5.276;2024-03-17T02:01:10;12.95;;;4.88;;
39016;SDS011;24784;45.582;5.276;2024-03-17T02:03:39;12.45;;;3.92;;
39016;SDS011;24784;45.582;5.276;2024-03-17T02:06:06;17.33;;;4.55;;
39016;SDS011;24784;45.582;5.276;2024-03-17T02:08:47;18.70;;;4.90;;
39016;SDS011;24784;45.582;5.276;2024-03-17T02:16:34;11.70;;;3.70;;
39016;SDS011;24784;45.582;5.276;2024-03-17T02:18:59;10.35;;;4.18;;
39016;SDS011;24784;45.582;5.276;2024-03-17T02:21:27;18.70;;;4.35;;
39016;SDS011;24784;45.582;5.276;2024-03-17T02:23:54;14.35;;;4.68;;
39016;SDS011;24784;45.582;5.276;2024-03-17T02:26:21;11.13;;;4.45;;
39016;SDS011;24784;45.582;5.276;2024-03-17T02:28:47;16.42;;;5.10;;
39016;SDS011;24784;45.582;5.276;2024-03-17T02:31:14;11.35;;;4.47;;
39016;SDS011;24784;45.582;5.276;2024-03-17T02:33:41;15.85;;;4.20;;
39016;SDS011;24784;45.582;5.276;2024-03-17T02:36:07;14.48;;;4.28;;
39016;SDS011;24784;45.582;5.276;2024-03-17T02:38:34;14.35;;;5.28;;
39016;SDS011;24784;45.582;5.276;2024-03-17T02:41:18;8.65;;;4.07;;
39016;SDS011;24784;45.582;5.276;2024-03-17T02:43:45;11.52;;;4.32;;
39016;SDS011;24784;45.582;5.276;2024-03-17T02:46:11;12.43;;;4.35;;
39016;SDS011;24784;45.582;5.276;2024-03-17T02:48:39;11.05;;;4.28;;
39016;SDS011;24784;45.582;5.276;2024-03-17T02:51:10;13.38;;;4.60;;
39016;SDS011;24784;45.582;5.276;2024-03-17T02:53:37;19.02;;;5.75;;
39016;SDS011;24784;45.582;5.276;2024-03-17T02:56:04;16.38;;;4.72;;
39016;SDS011;24784;45.582;5.276;2024-03-17T02:58:31;12.98;;;4.75;;
39016;SDS011;24784;45.582;5.276;2024-03-17T03:00:58;16.63;;;4.72;;
39016;SDS011;24784;45.582;5.276;2024-03-17T03:03:24;13.60;;;5.03;;
39016;SDS011;24784;45.582;5.276;2024-03-17T03:05:50;16.67;;;5.15;;
39016;SDS011;24784;45.582;5.276;2024-03-17T03:08:17;16.27;;;5.07;;
39016;SDS011;24784;45.582;5.276;2024-03-17T03:10:44;19.35;;;6.35;;
39016;SDS011;24784;45.582;5.276;2024-03-17T03:13:10;12.32;;;4.95;;
39016;SDS011;24784;45.582;5.276;2024-03-17T03:15:36;11.15;;;4.18;;
39016;SDS011;24784;45.582;5.276;2024-03-17T03:18:02;12.32;;;4.50;;
39016;SDS011;24784;45.582;5.276;2024-03-17T03:20:28;12.48;;;3.83;;
39016;SDS011;24784;45.582;5.276;2024-03-17T03:22:53;9.45;;;3.83;;
39016;SDS011;24784;45.582;5.276;2024-03-17T03:25:19;11.88;;;3.90;;
39016;SDS011;24784;45.582;5.276;2024-03-17T03:27:45;11.77;;;3.95;;
39016;SDS011;24784;45.582;5.276;2024-03-17T03:30:11;11.80;;;4.05;;
39016;SDS011;24784;45.582;5.276;2024-03-17T03:32:37;10.00;;;3.60;;
39016;SDS011;24784;45.582;5.276;2024-03-17T03:35:04;11.75;;;3.92;;
39016;SDS011;24784;45.582;5.276;2024-03-17T03:37:30;9.65;;;3.78;;
39016;SDS011;24784;45.582;5.276;2024-03-17T03:39:57;15.07;;;4.15;;
39016;SDS011;24784;45.582;5.276;2024-03-17T03:42:23;11.38;;;4.35;;
39016;SDS011;24784;45.582;5.276;2024-03-17T03:44:49;15.52;;;4.03;;
39016;SDS011;24784;45.582;5.276;2024-03-17T03:47:15;16.27;;;4.22;;
39016;SDS011;24784;45.582;5.276;2024-03-17T03:49:41;16.55;;;5.90;;
39016;SDS011;24784;45.582;5.276;2024-03-17T03:52:06;12.50;;;4.57;;
39016;SDS011;24784;45.582;5.276;2024-03-17T03:54:33;18.00;;;5.90;;
39016;SDS011;24784;45.582;5.276;2024-03-17T03:56:59;18.95;;;6.95;;
39016;SDS011;24784;45.582;5.276;2024-03-17T03:59:24;15.30;;;5.63;;
39016;SDS011;24784;45.582;5.276;2024-03-17T04:01:50;17.08;;;5.50;;
39016;SDS011;24784;45.582;5.276;2024-03-17T04:04:17;12.75;;;6.28;;
39016;SDS011;24784;45.582;5.276;2024-03-17T04:06:42;17.98;;;5.97;;
39016;SDS011;24784;45.582;5.276;2024-03-17T04:09:08;16.00;;;5.15;;
39016;SDS011;24784;45.582;5.276;2024-03-17T04:11:34;13.65;;;5.88;;
39016;SDS011;24784;45.582;5.276;2024-03-17T04:14:01;15.48;;;6.55;;
39016;SDS011;24784;45.582;5.276;2024-03-17T04:16:27;9.57;;;5.25;;
39016;SDS011;24784;45.582;5.276;2024-03-17T04:18:53;15.98;;;5.75;;
39016;SDS011;24784;45.582;5.276;2024-03-17T04:21:18;14.35;;;5.68;;
39016;SDS011;24784;45.582;5.276;2024-03-17T04:23:46;13.13;;;5.35;;
39016;SDS011;24784;45.582;5.276;2024-03-17T04:26:12;15.43;;;6.00;;
39016;SDS011;24784;45.582;5.276;2024-03-17T04:28:38;12.95;;;5.80;;
39016;SDS011;24784;45.582;5.276;2024-03-17T04:31:06;12.38;;;5.25;;
39016;SDS011;24784;45.582;5.276;2024-03-17T04:33:32;18.52;;;5.78;;
39016;SDS011;24784;45.582;5.276;2024-03-17T04:35:58;14.70;;;6.03;;
39016;SDS011;24784;45.582;5.276;2024-03-17T04:38:25;12.80;;;6.28;;
39016;SDS011;24784;45.582;5.276;2024-03-17T04:40:51;16.05;;;5.90;;
39016;SDS011;24784;45.582;5.276;2024-03-17T04:43:24;16.37;;;5.77;;
39016;SDS011;24784;45.582;5.276;2024-03-17T04:45:50;18.13;;;5.00;;
39016;SDS011;24784;45.582;5.276;2024-03-17T04:48:29;12.10;;;4.85;;
39016;SDS011;24784;45.582;5.276;2024-03-17T04:50:55;12.32;;;5.47;;
39016;SDS011;24784;45.582;5.276;2024-03-17T04:53:20;11.55;;;4.63;;
39016;SDS011;24784;45.582;5.276;2024-03-17T04:55:46;10.95;;;4.10;;
39016;SDS011;24784;45.582;5.276;2024-03-17T04:58:12;15.63;;;4.43;;
39016;SDS011;24784;45.582;5.276;2024-03-17T05:00:37;12.65;;;4.10;;
39016;SDS011;24784;45.582;5.276;2024-03-17T05:03:03;13.55;;;4.47;;
39016;SDS011;24784;45.582;5.276;2024-03-17T05:05:29;18.23;;;4.55;;
39016;SDS011;24784;45.582;5.276;2024-03-17T05:07:54;13.45;;;4.22;;
39016;SDS011;24784;45.582;5.276;2024-03-17T05:10:20;13.38;;;4.93;;
39016;SDS011;24784;45.582;5.276;2024-03-17T05:12:46;10.18;;;4.47;;
39016;SDS011;24784;45.582;5.276;2024-03-17T05:15:13;12.15;;;3.85;;
39016;SDS011;24784;45.582;5.276;2024-03-17T05:17:38;15.02;;;4.10;;
39016;SDS011;24784;45.582;5.276;2024-03-17T05:20:04;14.73;;;3.75;;
39016;SDS011;24784;45.582;5.276;2024-03-17T05:22:31;9.20;;;4.28;;
39016;SDS011;24784;45.582;5.276;2024-03-17T05:24:56;13.70;;;4.57;;
39016;SDS011;24784;45.582;5.276;2024-03-17T05:27:22;15.38;;;4.30;;
39016;SDS011;24784;45.582;5.276;2024-03-17T05:29:48;10.48;;;3.40;;
39016;SDS011;24784;45.582;5.276;2024-03-17T05:32:15;11.05;;;3.53;;
39016;SDS011;24784;45.582;5.276;2024-03-17T05:34:41;11.23;;;3.40;;
39016;SDS011;24784;45.582;5.276;2024-03-17T05:37:08;9.65;;;3.53;;
39016;SDS011;24784;45.582;5.276;2024-03-17T05:39:33;11.23;;;4.07;;
39016;SDS011;24784;45.582;5.276;2024-03-17T05:41:59;13.38;;;5.10;;
39016;SDS011;24784;45.582;5.276;2024-03-17T05:44:24;15.23;;;4.85;;
39016;SDS011;24784;45.582;5.276;2024-03-17T05:46:50;10.88;;;3.97;;
39016;SDS011;24784;45.582;5.276;2024-03-17T05:49:18;11.85;;;3.47;;
39016;SDS011;24784;45.582;5.276;2024-03-17T05:51:46;11.20;;;3.50;;
39016;SDS011;24784;45.582;5.276;2024-03-17T05:54:11;10.05;;;3.75;;
39016;SDS011;24784;45.582;5.276;2024-03-17T05:56:37;17.30;;;3.83;;
39016;SDS011;24784;45.582;5.276;2024-03-17T05:59:04;10.45;;;3.60;;
39016;SDS011;24784;45.582;5.276;2024-03-17T06:01:30;12.18;;;3.67;;
39016;SDS011;24784;45.582;5.276;2024-03-17T06:03:56;11.32;;;3.53;;
39016;SDS011;24784;45.582;5.276;2024-03-17T06:06:21;12.70;;;4.07;;
39016;SDS011;24784;45.582;5.276;2024-03-17T06:08:47;15.80;;;3.97;;
39016;SDS011;24784;45.582;5.276;2024-03-17T06:11:14;15.77;;;5.25;;
39016;SDS011;24784;45.582;5.276;2024-03-17T06:13:40;16.48;;;5.70;;
39016;SDS011;24784;45.582;5.276;2024-03-17T06:16:05;13.88;;;5.53;;
39016;SDS011;24784;45.582;5.276;2024-03-17T06:18:31;16.55;;;5.25;;
39016;SDS011;24784;45.582;5.276;2024-03-17T06:20:57;12.70;;;5.10;;
39016;SDS011;24784;45.582;5.276;2024-03-17T06:23:23;14.95;;;5.97;;
39016;SDS011;24784;45.582;5.276;2024-03-17T06:25:49;14.88;;;4.88;;
39016;SDS011;24784;45.582;5.276;2024-03-17T06:28:16;19.67;;;5.45;;
39016;SDS011;24784;45.582;5.276;2024-03-17T06:30:46;14.07;;;5.38;;
39016;SDS011;24784;45.582;5.276;2024-03-17T06:33:21;13.52;;;5.63;;
39016;SDS011;24784;45.582;5.276;2024-03-17T06:35:47;10.57;;;4.72;;
39016;SDS011;24784;45.582;5.276;2024-03-17T06:38:13;19.10;;;5.90;;
39016;SDS011;24784;45.582;5.276;2024-03-17T06:40:40;14.18;;;5.45;;
39016;SDS011;24784;45.582;5.276;2024-03-17T06:43:06;15.57;;;5.47;;
39016;SDS011;24784;45.582;5.276;2024-03-17T06:45:32;13.48;;;4.10;;
39016;SDS011;24784;45.582;5.276;2024-03-17T06:47:58;21.38;;;5.20;;
39016;SDS011;24784;45.582;5.276;2024-03-17T06:50:24;11.90;;;4.25;;
39016;SDS011;24784;45.582;5.276;2024-03-17T06:52:50;12.77;;;3.50;;
39016;SDS011;24784;45.582;5.276;2024-03-17T06:55:17;13.02;;;4.00;;
39016;SDS011;24784;45.582;5.276;2024-03-17T06:57:43;12.70;;;3.17;;
39016;SDS011;24784;45.582;5.276;2024-03-17T07:00:09;10.75;;;3.78;;
39016;SDS011;24784;45.582;5.276;2024-03-17T07:02:42;15.07;;;3.50;;
39016;SDS011;24784;45.582;5.276;2024-03-17T07:05:12;14.13;;;4.10;;
39016;SDS011;24784;45.582;5.276;2024-03-17T07:07:41;11.27;;;4.38;;
39016;SDS011;24784;45.582;5.276;2024-03-17T07:10:08;10.50;;;3.92;;
39016;SDS011;24784;45.582;5.276;2024-03-17T07:12:36;9.88;;;4.80;;
39016;SDS011;24784;45.582;5.276;2024-03-17T07:15:02;14.85;;;4.30;;
39016;SDS011;24784;45.582;5.276;2024-03-17T07:17:28;12.05;;;4.93;;
39016;SDS011;24784;45.582;5.276;2024-03-17T07:19:54;19.63;;;6.57;;
39016;SDS011;24784;45.582;5.276;2024-03-17T07:22:20;13.35;;;5.25;;
39016;SDS011;24784;45.582;5.276;2024-03-17T07:24:47;14.60;;;4.82;;
39016;SDS011;24784;45.582;5.276;2024-03-17T07:27:15;13.55;;;4.65;;
39016;SDS011;24784;45.582;5.276;2024-03-17T07:29:40;13.32;;;5.57;;
39016;SDS011;24784;45.582;5.276;2024-03-17T07:32:06;15.52;;;4.70;;
39016;SDS011;24784;45.582;5.276;2024-03-17T07:34:32;12.32;;;4.47;;
39016;SDS011;24784;45.582;5.276;2024-03-17T07:36:58;10.93;;;3.42;;
39016;SDS011;24784;45.582;5.276;2024-03-17T07:39:28;10.05;;;3.00;;
39016;SDS011;24784;45.582;5.276;2024-03-17T07:42:00;5.32;;;2.85;;
39016;SDS011;24784;45.582;5.276;2024-03-17T07:44:27;10.20;;;4.30;;
39016;SDS011;24784;45.582;5.276;2024-03-17T07:46:58;15.45;;;3.33;;
39016;SDS011;24784;45.582;5.276;2024-03-17T07:49:24;15.10;;;3.70;;
39016;SDS011;24784;45.582;5.276;2024-03-17T07:51:49;13.55;;;3.67;;
39016;SDS011;24784;45.582;5.276;2024-03-17T07:54:15;7.28;;;3.15;;
39016;SDS011;24784;45.582;5.276;2024-03-17T07:56:41;10.02;;;3.33;;
39016;SDS011;24784;45.582;5.276;2024-03-17T07:59:06;10.07;;;3.35;;
39016;SDS011;24784;45.582;5.276;2024-03-17T08:01:38;11.20;;;3.38;;
39016;SDS011;24784;45.582;5.276;2024-03-17T08:04:04;16.85;;;4.72;;
39016;SDS011;24784;45.582;5.276;2024-03-17T08:06:29;10.35;;;3.78;;
39016;SDS011;24784;45.582;5.276;2024-03-17T08:08:55;9.38;;;3.42;;
39016;SDS011;24784;45.582;5.276;2024-03-17T08:11:22;11.48;;;3.95;;
39016;SDS011;24784;45.582;5.276;2024-03-17T08:13:47;9.45;;;3.30;;
39016;SDS011;24784;45.582;5.276;2024-03-17T08:16:13;14.48;;;5.15;;
39016;SDS011;24784;45.582;5.276;2024-03-17T08:18:39;11.60;;;4.13;;
39016;SDS011;24784;45.582;5.276;2024-03-17T08:21:05;12.10;;;4.05;;
39016;SDS011;24784;45.582;5.276;2024-03-17T08:23:31;15.07;;;3.78;;
39016;SDS011;24784;45.582;5.276;2024-03-17T08:26:06;14.52;;;4.00;;
39016;SDS011;24784;45.582;5.276;2024-03-17T08:28:33;14.70;;;4.72;;
39016;SDS011;24784;45.582;5.276;2024-03-17T08:30:59;8.85;;;3.75;;
39016;SDS011;24784;45.582;5.276;2024-03-17T08:33:27;14.00;;;4.45;;
39016;SDS011;24784;45.582;5.276;2024-03-17T08:38:22;12.18;;;4.63;;
39016;SDS011;24784;45.582;5.276;2024-03-17T08:40:50;16.33;;;4.03;;
39016;SDS011;24784;45.582;5.276;2024-03-17T08:43:16;11.13;;;3.65;;
39016;SDS011;24784;45.582;5.276;2024-03-17T08:45:41;10.90;;;3.42;;
39016;SDS011;24784;45.582;5.276;2024-03-17T08:48:08;14.52;;;3.55;;
39016;SDS011;24784;45.582;5.276;2024-03-17T08:50:35;11.70;;;4.20;;
39016;SDS011;24784;45.582;5.276;2024-03-17T08:53:01;11.55;;;3.63;;
39016;SDS011;24784;45.582;5.276;2024-03-17T08:55:27;12.77;;;3.72;;
39016;SDS011;24784;45.582;5.276;2024-03-17T08:57:52;11.65;;;3.63;;
39016;SDS011;24784;45.582;5.276;2024-03-17T09:00:18;9.20;;;3.30;;
39016;SDS011;24784;45.582;5.276;2024-03-17T09:02:44;11.35;;;3.63;;
39016;SDS011;24784;45.582;5.276;2024-03-17T09:05:09;14.98;;;4.45;;
39016;SDS011;24784;45.582;5.276;2024-03-17T09:07:37;12.10;;;3.20;;
39016;SDS011;24784;45.582;5.276;2024-03-17T09:10:03;13.63;;;3.50;;
39016;SDS011;24784;45.582;5.276;2024-03-17T09:12:29;11.75;;;3.65;;
39016;SDS011;24784;45.582;5.276;2024-03-17T09:14:55;16.10;;;3.65;;
39016;SDS011;24784;45.582;5.276;2024-03-17T09:17:21;8.73;;;3.80;;
39016;SDS011;24784;45.582;5.276;2024-03-17T09:19:46;7.75;;;2.78;;
39016;SDS011;24784;45.582;5.276;2024-03-17T09:22:15;9.10;;;3.03;;
39016;SDS011;24784;45.582;5.276;2024-03-17T09:24:41;5.25;;;2.55;;
39016;SDS011;24784;45.582;5.276;2024-03-17T09:27:06;13.18;;;3.38;;
39016;SDS011;24784;45.582;5.276;2024-03-17T09:29:32;8.10;;;3.20;;
39016;SDS011;24784;45.582;5.276;2024-03-17T09:31:58;10.00;;;3.35;;
39016;SDS011;24784;45.582;5.276;2024-03-17T09:34:24;11.40;;;3.33;;
39016;SDS011;24784;45.582;5.276;2024-03-17T09:36:50;7.20;;;2.55;;
39016;SDS011;24784;45.582;5.276;2024-03-17T09:39:15;15.38;;;3.00;;
39016;SDS011;24784;45.582;5.276;2024-03-17T09:41:41;9.88;;;3.03;;
39016;SDS011;24784;45.582;5.276;2024-03-17T09:44:09;8.95;;;2.60;;
39016;SDS011;24784;45.582;5.276;2024-03-17T09:46:38;13.18;;;2.75;;
39016;SDS011;24784;45.582;5.276;2024-03-17T09:49:04;12.40;;;2.78;;
39016;SDS011;24784;45.582;5.276;2024-03-17T09:51:33;7.18;;;2.70;;
39016;SDS011;24784;45.582;5.276;2024-03-17T09:54:00;9.07;;;2.95;;
39016;SDS011;24784;45.582;5.276;2024-03-17T09:56:25;11.73;;;3.00;;
39016;SDS011;24784;45.582;5.276;2024-03-17T09:58:51;7.05;;;2.85;;
39016;SDS011;24784;45.582;5.276;2024-03-17T10:01:17;7.85;;;2.85;;
39016;SDS011;24784;45.582;5.276;2024-03-17T10:03:47;6.28;;;2.95;;
39016;SDS011;24784;45.582;5.276;2024-03-17T10:06:48;7.43;;;2.45;;
39016;SDS011;24784;45.582;5.276;2024-03-17T10:09:16;8.35;;;3.35;;
39016;SDS011;24784;45.582;5.276;2024-03-17T10:11:48;7.38;;;2.42;;
39016;SDS011;24784;45.582;5.276;2024-03-17T10:14:16;8.70;;;2.58;;
39016;SDS011;24784;45.582;5.276;2024-03-17T10:16:42;9.52;;;2.92;;
39016;SDS011;24784;45.582;5.276;2024-03-17T10:21:39;9.10;;;3.00;;
39016;SDS011;24784;45.582;5.276;2024-03-17T10:26:36;6.95;;;2.78;;
39016;SDS011;24784;45.582;5.276;2024-03-17T10:29:04;9.32;;;3.08;;
39016;SDS011;24784;45.582;5.276;2024-03-17T10:31:40;9.75;;;2.90;;
39016;SDS011;24784;45.582;5.276;2024-03-17T10:34:06;6.05;;;3.03;;
39016;SDS011;24784;45.582;5.276;2024-03-17T10:36:43;8.23;;;2.92;;
39016;SDS011;24784;45.582;5.276;2024-03-17T10:42:06;10.73;;;3.17;;
39016;SDS011;24784;45.582;5.276;2024-03-17T10:44:36;6.32;;;2.90;;
39016;SDS011;24784;45.582;5.276;2024-03-17T10:47:03;9.13;;;2.70;;
39016;SDS011;24784;45.582;5.276;2024-03-17T10:49:35;9.80;;;2.65;;
39016;SDS011;24784;45.582;5.276;2024-03-17T10:52:06;10.32;;;2.95;;
39016;SDS011;24784;45.582;5.276;2024-03-17T10:54:33;12.27;;;3.20;;
39016;SDS011;24784;45.582;5.276;2024-03-17T11:00:04;9.88;;;3.15;;
39016;SDS011;24784;45.582;5.276;2024-03-17T11:02:33;7.00;;;2.60;;
39016;SDS011;24784;45.582;5.276;2024-03-17T11:05:11;10.48;;;2.95;;
39016;SDS011;24784;45.582;5.276;2024-03-17T11:07:59;10.15;;;3.05;;
39016;SDS011;24784;45.582;5.276;2024-03-17T11:10:27;6.97;;;2.83;;
39016;SDS011;24784;45.582;5.276;2024-03-17T11:12:55;11.35;;;3.95;;
39016;SDS011;24784;45.582;5.276;2024-03-17T11:20:35;7.78;;;2.92;;
39016;SDS011;24784;45.582;5.276;2024-03-17T11:23:05;9.85;;;3.10;;
39016;SDS011;24784;45.582;5.276;2024-03-17T11:28:00;8.15;;;3.15;;
39016;SDS011;24784;45.582;5.276;2024-03-17T11:49:04;7.75;;;2.80;;
39016;SDS011;24784;45.582;5.276;2024-03-17T11:51:32;10.10;;;3.15;;
39016;SDS011;24784;45.582;5.276;2024-03-17T11:53:59;6.18;;;2.97;;
39016;SDS011;24784;45.582;5.276;2024-03-17T11:56:25;15.35;;;4.10;;
39016;SDS011;24784;45.582;5.276;2024-03-17T11:59:05;10.25;;;2.90;;
39016;SDS011;24784;45.582;5.276;2024-03-17T12:01:34;8.27;;;2.92;;
39016;SDS011;24784;45.582;5.276;2024-03-17T12:03:59;11.27;;;3.00;;
39016;SDS011;24784;45.582;5.276;2024-03-17T12:06:30;7.90;;;3.30;;
39016;SDS011;24784;45.582;5.276;2024-03-17T12:09:17;11.65;;;3.55;;
39016;SDS011;24784;45.582;5.276;2024-03-17T12:11:59;8.25;;;3.40;;
39016;SDS011;24784;45.582;5.276;2024-03-17T12:14:26;10.00;;;3.03;;
39016;SDS011;24784;45.582;5.276;2024-03-17T12:16:52;6.43;;;2.78;;
39016;SDS011;24784;45.582;5.276;2024-03-17T12:19:22;8.75;;;3.17;;
39016;SDS011;24784;45.582;5.276;2024-03-17T12:21:52;6.60;;;2.60;;
39016;SDS011;24784;45.582;5.276;2024-03-17T12:24:31;8.63;;;3.28;;
39016;SDS011;24784;45.582;5.276;2024-03-17T12:26:58;6.47;;;2.70;;
39016;SDS011;24784;45.582;5.276;2024-03-17T12:32:15;6.53;;;3.03;;
39016;SDS011;24784;45.582;5.276;2024-03-17T12:34:43;5.60;;;2.72;;
39016;SDS011;24784;45.582;5.276;2024-03-17T12:37:23;11.13;;;3.10;;
39016;SDS011;24784;45.582;5.276;2024-03-17T12:39:51;10.93;;;3.22;;
39016;SDS011;24784;45.582;5.276;2024-03-17T12:42:22;11.95;;;3.28;;
39016;SDS011;24784;45.582;5.276;2024-03-17T12:44:50;7.15;;;2.90;;
39016;SDS011;24784;45.582;5.276;2024-03-17T12:47:17;6.70;;;2.35;;
39016;SDS011;24784;45.582;5.276;2024-03-17T12:50:08;8.82;;;2.95;;
39016;SDS011;24784;45.582;5.276;2024-03-17T12:52:35;7.28;;;3.03;;
39016;SDS011;24784;45.582;5.276;2024-03-17T12:58:04;5.68;;;2.88;;
39016;SDS011;24784;45.582;5.276;2024-03-17T13:01:00;6.95;;;2.97;;
39016;SDS011;24784;45.582;5.276;2024-03-17T13:03:33;6.93;;;2.55;;
39016;SDS011;24784;45.582;5.276;2024-03-17T13:06:00;11.30;;;2.92;;
39016;SDS011;24784;45.582;5.276;2024-03-17T13:08:36;5.32;;;2.75;;
39016;SDS011;24784;45.582;5.276;2024-03-17T13:11:02;6.18;;;2.70;;
39016;SDS011;24784;45.582;5.276;2024-03-17T13:13:34;9.82;;;3.15;;
39016;SDS011;24784;45.582;5.276;2024-03-17T13:16:00;6.35;;;2.90;;
39016;SDS011;24784;45.582;5.276;2024-03-17T13:18:25;5.78;;;3.33;;
39016;SDS011;24784;45.582;5.276;2024-03-17T13:20:51;11.07;;;3.30;;
39016;SDS011;24784;45.582;5.276;2024-03-17T13:23:18;6.18;;;2.88;;
39016;SDS011;24784;45.582;5.276;2024-03-17T13:25:46;11.82;;;3.53;;
39016;SDS011;24784;45.582;5.276;2024-03-17T13:28:13;7.57;;;3.08;;
39016;SDS011;24784;45.582;5.276;2024-03-17T13:30:38;6.50;;;2.65;;
39016;SDS011;24784;45.582;5.276;2024-03-17T13:33:05;11.40;;;3.67;;
39016;SDS011;24784;45.582;5.276;2024-03-17T13:35:34;10.40;;;3.05;;
39016;SDS011;24784;45.582;5.276;2024-03-17T13:38:07;8.23;;;2.88;;
39016;SDS011;24784;45.582;5.276;2024-03-17T13:40:34;6.25;;;2.70;;
39016;SDS011;24784;45.582;5.276;2024-03-17T13:43:00;7.90;;;2.85;;
39016;SDS011;24784;45.582;5.276;2024-03-17T13:45:31;7.85;;;2.72;;
39016;SDS011;24784;45.582;5.276;2024-03-17T13:48:04;8.05;;;2.65;;
39016;SDS011;24784;45.582;5.276;2024-03-17T13:50:31;12.07;;;3.10;;
39016;SDS011;24784;45.582;5.276;2024-03-17T13:52:57;7.22;;;2.97;;
39016;SDS011;24784;45.582;5.276;2024-03-17T13:55:23;12.00;;;3.58;;
39016;SDS011;24784;45.582;5.276;2024-03-17T13:57:51;6.57;;;2.42;;
39016;SDS011;24784;45.582;5.276;2024-03-17T14:00:22;7.80;;;2.55;;
39016;SDS011;24784;45.582;5.276;2024-03-17T14:02:49;6.95;;;2.72;;
39016;SDS011;24784;45.582;5.276;2024-03-17T14:05:16;6.63;;;2.78;;
39016;SDS011;24784;45.582;5.276;2024-03-17T14:07:43;8.80;;;3.38;;
39016;SDS011;24784;45.582;5.276;2024-03-17T14:10:10;9.48;;;3.58;;
39016;SDS011;24784;45.582;5.276;2024-03-17T14:12:36;9.23;;;3.30;;
39016;SDS011;24784;45.582;5.276;2024-03-17T14:15:04;7.28;;;2.55;;
39016;SDS011;24784;45.582;5.276;2024-03-17T14:17:30;6.97;;;2.75;;
39016;SDS011;24784;45.582;5.276;2024-03-17T14:19:56;9.40;;;2.67;;
39016;SDS011;24784;45.582;5.276;2024-03-17T14:22:22;13.32;;;3.53;;
39016;SDS011;24784;45.582;5.276;2024-03-17T14:24:47;6.03;;;2.70;;
39016;SDS011;24784;45.582;5.276;2024-03-17T14:27:14;9.18;;;2.92;;
39016;SDS011;24784;45.582;5.276;2024-03-17T14:29:41;7.85;;;3.40;;
39016;SDS011;24784;45.582;5.276;2024-03-17T14:32:07;8.20;;;2.90;;
39016;SDS011;24784;45.582;5.276;2024-03-17T14:34:32;6.18;;;2.70;;
39016;SDS011;24784;45.582;5.276;2024-03-17T14:37:01;8.95;;;2.97;;
39016;SDS011;24784;45.582;5.276;2024-03-17T14:39:28;6.47;;;3.00;;
39016;SDS011;24784;45.582;5.276;2024-03-17T14:41:54;7.97;;;2.85;;
39016;SDS011;24784;45.582;5.276;2024-03-17T14:44:20;5.88;;;2.72;;
39016;SDS011;24784;45.582;5.276;2024-03-17T14:46:46;4.97;;;2.33;;
39016;SDS011;24784;45.582;5.276;2024-03-17T14:49:12;11.13;;;2.67;;
39016;SDS011;24784;45.582;5.276;2024-03-17T14:51:38;7.88;;;2.67;;
39016;SDS011;24784;45.582;5.276;2024-03-17T14:54:04;9.82;;;2.95;;
39016;SDS011;24784;45.582;5.276;2024-03-17T14:56:30;7.70;;;3.15;;
39016;SDS011;24784;45.582;5.276;2024-03-17T14:58:56;9.07;;;2.95;;
39016;SDS011;24784;45.582;5.276;2024-03-17T15:01:22;7.32;;;2.55;;
39016;SDS011;24784;45.582;5.276;2024-03-17T15:03:47;9.05;;;2.90;;
39016;SDS011;24784;45.582;5.276;2024-03-17T15:06:13;7.30;;;3.13;;
39016;SDS011;24784;45.582;5.276;2024-03-17T15:08:40;6.18;;;2.75;;
39016;SDS011;24784;45.582;5.276;2024-03-17T15:11:06;6.32;;;2.65;;
39016;SDS011;24784;45.582;5.276;2024-03-17T15:13:35;6.63;;;2.63;;
39016;SDS011;24784;45.582;5.276;2024-03-17T15:16:02;8.23;;;3.03;;
39016;SDS011;24784;45.582;5.276;2024-03-17T15:18:29;5.57;;;2.72;;
39016;SDS011;24784;45.582;5.276;2024-03-17T15:20:55;9.13;;;2.60;;
39016;SDS011;24784;45.582;5.276;2024-03-17T15:23:21;6.18;;;2.80;;
39016;SDS011;24784;45.582;5.276;2024-03-17T15:25:47;8.30;;;2.85;;
39016;SDS011;24784;45.582;5.276;2024-03-17T15:28:13;7.28;;;2.40;;
39016;SDS011;24784;45.582;5.276;2024-03-17T15:30:38;7.38;;;2.38;;